sensor_id;sensor_type;location;lat;lon;timestamp;P1;durP1;ratioP1;P2;durP2;ratioP2
24147;SDS011;12309;51.450;-2.624;2023-05-16T00:00:16;3.40;;;1.47;;
24147;SDS011;12309;51.450;-2.624;2023-05-16T00:02:41;4.23;;;1.33;;
24147;SDS011;12309;51.450;-2.624;2023-05-16T00:05:07;3.97;;;1.00;;
24147;SDS011;12309;51.450;-2.624;2023-05-16T00:07:34;7.07;;;1.20;;
24147;SDS011;12309;51.450;-2.624;2023-05-16T00:10:00;8.47;;;1.30;;
24147;SDS011;12309;51.450;-2.624;2023-05-16T00:12:27;5.00;;;1.17;;
24147;SDS011;12309;51.450;-2.624;2023-05-16T00:14:53;4.53;;;1.30;;
24147;SDS011;12309;51.450;-2.624;2023-05-16T00:17:19;3.53;;;1.07;;
24147;SDS011;12309;51.450;-2.624;2023-05-16T00:19:46;4.53;;;1.03;;
24147;SDS011;12309;51.450;-2.624;2023-05-16T00:22:13;4.77;;;1.10;;
24147;SDS011;12309;51.450;-2.624;2023-05-16T00:24:42;7.40;;;1.20;;
24147;SDS011;12309;51.450;-2.624;2023-05-16T00:27:08;8.53;;;1.50;;
24147;SDS011;12309;51.450;-2.624;2023-05-16T00:29:34;7.33;;;1.20;;
24147;SDS011;12309;51.450;-2.624;2023-05-16T00:31:59;7.17;;;1.50;;
24147;SDS011;12309;51.450;-2.624;2023-05-16T00:34:25;3.97;;;1.10;;
24147;SDS011;12309;51.450;-2.624;2023-05-16T00:36:51;3.67;;;1.00;;
24147;SDS011;12309;51.450;-2.624;2023-05-16T00:39:17;4.90;;;1.17;;
24147;SDS011;12309;51.450;-2.624;2023-05-16T00:41:43;4.57;;;1.13;;
24147;SDS011;12309;51.450;-2.624;2023-05-16T00:44:10;3.87;;;1.30;;
24147;SDS011;12309;51.450;-2.624;2023-05-16T00:46:35;4.43;;;1.10;;
24147;SDS011;12309;51.450;-2.624;2023-05-16T00:49:01;4.43;;;1.17;;
24147;SDS011;12309;51.450;-2.624;2023-05-16T00:51:28;6.90;;;1.40;;
24147;SDS011;12309;51.450;-2.624;2023-05-16T00:53:54;7.60;;;1.20;;
24147;SDS011;12309;51.450;-2.624;2023-05-16T00:56:21;6.17;;;1.33;;
24147;SDS011;12309;51.450;-2.624;2023-05-16T00:58:47;6.47;;;1.10;;
24147;SDS011;12309;51.450;-2.624;2023-05-16T01:01:14;3.87;;;1.10;;
24147;SDS011;12309;51.450;-2.624;2023-05-16T01:03:40;4.73;;;1.30;;
24147;SDS011;12309;51.450;-2.624;2023-05-16T01:06:07;8.50;;;1.10;;
24147;SDS011;12309;51.450;-2.624;2023-05-16T01:08:33;4.07;;;1.20;;
24147;SDS011;12309;51.450;-2.624;2023-05-16T01:11:14;7.87;;;1.10;;
24147;SDS011;12309;51.450;-2.624;2023-05-16T01:16:25;7.90;;;1.40;;
24147;SDS011;12309;51.450;-2.624;2023-05-16T01:22:01;6.43;;;1.37;;
24147;SDS011;12309;51.450;-2.624;2023-05-16T01:27:27;5.70;;;1.10;;
24147;SDS011;12309;51.450;-2.624;2023-05-16T01:29:55;4.80;;;1.37;;
24147;SDS011;12309;51.450;-2.624;2023-05-16T01:32:21;6.10;;;1.17;;
24147;SDS011;12309;51.450;-2.624;2023-05-16T01:34:48;6.23;;;1.20;;
24147;SDS011;12309;51.450;-2.624;2023-05-16T01:37:16;6.90;;;1.10;;
24147;SDS011;12309;51.450;-2.624;2023-05-16T01:39:51;4.90;;;0.77;;
24147;SDS011;12309;51.450;-2.624;2023-05-16T01:42:18;4.70;;;1.07;;
24147;SDS011;12309;51.450;-2.624;2023-05-16T01:47:17;3.20;;;0.90;;
24147;SDS011;12309;51.450;-2.624;2023-05-16T01:49:48;6.17;;;1.00;;
24147;SDS011;12309;51.450;-2.624;2023-05-16T01:52:31;6.13;;;1.10;;
24147;SDS011;12309;51.450;-2.624;2023-05-16T01:55:02;5.47;;;1.10;;
24147;SDS011;12309;51.450;-2.624;2023-05-16T01:57:30;6.90;;;1.23;;
24147;SDS011;12309;51.450;-2.624;2023-05-16T01:59:57;3.67;;;1.03;;
24147;SDS011;12309;51.450;-2.624;2023-05-16T02:02:23;2.67;;;0.73;;
24147;SDS011;12309;51.450;-2.624;2023-05-16T02:04:49;8.03;;;1.10;;
24147;SDS011;12309;51.450;-2.624;2023-05-16T02:07:15;6.80;;;1.17;;
24147;SDS011;12309;51.450;-2.624;2023-05-16T02:09:40;4.37;;;1.27;;
24147;SDS011;12309;51.450;-2.624;2023-05-16T02:12:06;4.00;;;0.80;;
24147;SDS011;12309;51.450;-2.624;2023-05-16T02:14:32;4.37;;;1.07;;
24147;SDS011;12309;51.450;-2.624;2023-05-16T02:16:58;6.00;;;1.03;;
24147;SDS011;12309;51.450;-2.624;2023-05-16T02:19:24;6.27;;;1.07;;
24147;SDS011;12309;51.450;-2.624;2023-05-16T02:21:49;4.83;;;1.13;;
24147;SDS011;12309;51.450;-2.624;2023-05-16T02:24:15;5.13;;;0.60;;
24147;SDS011;12309;51.450;-2.624;2023-05-16T02:26:41;3.47;;;0.90;;
24147;SDS011;12309;51.450;-2.624;2023-05-16T02:29:08;4.23;;;0.80;;
24147;SDS011;12309;51.450;-2.624;2023-05-16T02:31:34;5.80;;;1.00;;
24147;SDS011;12309;51.450;-2.624;2023-05-16T02:33:59;4.97;;;1.00;;
24147;SDS011;12309;51.450;-2.624;2023-05-16T02:36:26;5.67;;;0.97;;
24147;SDS011;12309;51.450;-2.624;2023-05-16T02:38:52;6.70;;;1.17;;
24147;SDS011;12309;51.450;-2.624;2023-05-16T02:41:18;3.33;;;0.70;;
24147;SDS011;12309;51.450;-2.624;2023-05-16T02:43:46;3.27;;;1.00;;
24147;SDS011;12309;51.450;-2.624;2023-05-16T02:46:26;5.43;;;0.90;;
24147;SDS011;12309;51.450;-2.624;2023-05-16T02:48:54;5.17;;;1.17;;
24147;SDS011;12309;51.450;-2.624;2023-05-16T02:51:20;8.90;;;1.00;;
24147;SDS011;12309;51.450;-2.624;2023-05-16T02:53:47;6.30;;;0.67;;
24147;SDS011;12309;51.450;-2.624;2023-05-16T02:56:13;6.87;;;1.03;;
24147;SDS011;12309;51.450;-2.624;2023-05-16T02:58:39;6.47;;;1.03;;
24147;SDS011;12309;51.450;-2.624;2023-05-16T03:01:05;6.00;;;1.13;;
24147;SDS011;12309;51.450;-2.624;2023-05-16T03:03:31;3.50;;;0.90;;
24147;SDS011;12309;51.450;-2.624;2023-05-16T03:05:59;5.93;;;1.10;;
24147;SDS011;12309;51.450;-2.624;2023-05-16T03:08:25;2.47;;;1.30;;
24147;SDS011;12309;51.450;-2.624;2023-05-16T03:10:50;5.00;;;0.90;;
24147;SDS011;12309;51.450;-2.624;2023-05-16T03:13:16;7.53;;;1.00;;
24147;SDS011;12309;51.450;-2.624;2023-05-16T03:15:42;2.90;;;1.03;;
24147;SDS011;12309;51.450;-2.624;2023-05-16T03:18:08;5.63;;;0.83;;
24147;SDS011;12309;51.450;-2.624;2023-05-16T03:20:33;3.23;;;1.00;;
24147;SDS011;12309;51.450;-2.624;2023-05-16T03:22:59;4.63;;;1.00;;
24147;SDS011;12309;51.450;-2.624;2023-05-16T03:25:25;4.53;;;0.90;;
24147;SDS011;12309;51.450;-2.624;2023-05-16T03:27:51;3.63;;;0.83;;
24147;SDS011;12309;51.450;-2.624;2023-05-16T03:30:16;5.50;;;0.87;;
24147;SDS011;12309;51.450;-2.624;2023-05-16T03:32:44;5.10;;;1.17;;
24147;SDS011;12309;51.450;-2.624;2023-05-16T03:35:10;3.47;;;0.80;;
24147;SDS011;12309;51.450;-2.624;2023-05-16T03:37:36;5.97;;;0.90;;
24147;SDS011;12309;51.450;-2.624;2023-05-16T03:40:03;4.57;;;0.80;;
24147;SDS011;12309;51.450;-2.624;2023-05-16T03:42:32;8.57;;;1.20;;
24147;SDS011;12309;51.450;-2.624;2023-05-16T03:44:57;6.07;;;1.00;;
24147;SDS011;12309;51.450;-2.624;2023-05-16T03:47:23;7.53;;;1.03;;
24147;SDS011;12309;51.450;-2.624;2023-05-16T03:49:49;5.47;;;1.00;;
24147;SDS011;12309;51.450;-2.624;2023-05-16T03:52:14;5.63;;;1.17;;
24147;SDS011;12309;51.450;-2.624;2023-05-16T03:54:40;5.13;;;1.17;;
24147;SDS011;12309;51.450;-2.624;2023-05-16T03:57:06;3.87;;;0.97;;
24147;SDS011;12309;51.450;-2.624;2023-05-16T03:59:31;8.60;;;1.10;;
24147;SDS011;12309;51.450;-2.624;2023-05-16T04:01:58;6.87;;;1.07;;
24147;SDS011;12309;51.450;-2.624;2023-05-16T04:04:24;4.80;;;1.03;;
24147;SDS011;12309;51.450;-2.624;2023-05-16T04:06:50;3.03;;;1.10;;
24147;SDS011;12309;51.450;-2.624;2023-05-16T04:09:15;3.73;;;0.67;;
24147;SDS011;12309;51.450;-2.624;2023-05-16T04:11:41;3.43;;;0.90;;
24147;SDS011;12309;51.450;-2.624;2023-05-16T04:14:07;3.63;;;0.80;;
24147;SDS011;12309;51.450;-2.624;2023-05-16T04:16:33;4.87;;;0.90;;
24147;SDS011;12309;51.450;-2.624;2023-05-16T04:18:58;3.53;;;1.13;;
24147;SDS011;12309;51.450;-2.624;2023-05-16T04:21:24;5.77;;;1.00;;
24147;SDS011;12309;51.450;-2.624;2023-05-16T04:23:49;11.50;;;1.07;;
24147;SDS011;12309;51.450;-2.624;2023-05-16T04:26:15;9.77;;;1.10;;
24147;SDS011;12309;51.450;-2.624;2023-05-16T04:28:40;4.27;;;0.90;;
24147;SDS011;12309;51.450;-2.624;2023-05-16T04:31:06;6.57;;;1.03;;
24147;SDS011;12309;51.450;-2.624;2023-05-16T04:33:32;6.93;;;1.23;;
24147;SDS011;12309;51.450;-2.624;2023-05-16T04:35:58;3.47;;;0.97;;
24147;SDS011;12309;51.450;-2.624;2023-05-16T04:38:24;5.83;;;1.03;;
24147;SDS011;12309;51.450;-2.624;2023-05-16T04:40:50;5.13;;;1.10;;
24147;SDS011;12309;51.450;-2.624;2023-05-16T04:43:17;5.93;;;1.03;;
24147;SDS011;12309;51.450;-2.624;2023-05-16T04:45:43;3.27;;;1.07;;
24147;SDS011;12309;51.450;-2.624;2023-05-16T04:48:09;3.67;;;1.03;;
24147;SDS011;12309;51.450;-2.624;2023-05-16T04:50:35;8.47;;;0.97;;
24147;SDS011;12309;51.450;-2.624;2023-05-16T04:53:01;2.47;;;1.07;;
24147;SDS011;12309;51.450;-2.624;2023-05-16T04:55:27;5.70;;;1.20;;
24147;SDS011;12309;51.450;-2.624;2023-05-16T04:57:52;2.90;;;1.23;;
24147;SDS011;12309;51.450;-2.624;2023-05-16T05:00:18;5.60;;;1.00;;
24147;SDS011;12309;51.450;-2.624;2023-05-16T05:02:44;7.63;;;1.40;;
24147;SDS011;12309;51.450;-2.624;2023-05-16T05:05:10;5.17;;;1.17;;
24147;SDS011;12309;51.450;-2.624;2023-05-16T05:07:36;5.53;;;1.00;;
24147;SDS011;12309;51.450;-2.624;2023-05-16T05:10:02;3.67;;;1.10;;
24147;SDS011;12309;51.450;-2.624;2023-05-16T05:12:28;8.23;;;1.33;;
24147;SDS011;12309;51.450;-2.624;2023-05-16T05:14:53;4.23;;;1.20;;
24147;SDS011;12309;51.450;-2.624;2023-05-16T05:17:19;4.50;;;1.23;;
24147;SDS011;12309;51.450;-2.624;2023-05-16T05:19:46;6.50;;;1.30;;
24147;SDS011;12309;51.450;-2.624;2023-05-16T05:22:12;3.80;;;0.97;;
24147;SDS011;12309;51.450;-2.624;2023-05-16T05:24:38;6.03;;;1.30;;
24147;SDS011;12309;51.450;-2.624;2023-05-16T05:27:04;7.33;;;1.27;;
24147;SDS011;12309;51.450;-2.624;2023-05-16T05:29:30;5.10;;;1.10;;
24147;SDS011;12309;51.450;-2.624;2023-05-16T05:31:56;8.00;;;1.30;;
24147;SDS011;12309;51.450;-2.624;2023-05-16T05:34:21;7.10;;;1.00;;
24147;SDS011;12309;51.450;-2.624;2023-05-16T05:36:47;5.30;;;1.00;;
24147;SDS011;12309;51.450;-2.624;2023-05-16T05:39:13;7.93;;;1.30;;
24147;SDS011;12309;51.450;-2.624;2023-05-16T05:41:38;6.13;;;1.20;;
24147;SDS011;12309;51.450;-2.624;2023-05-16T05:44:04;8.67;;;1.40;;
24147;SDS011;12309;51.450;-2.624;2023-05-16T05:46:30;4.87;;;1.53;;
24147;SDS011;12309;51.450;-2.624;2023-05-16T05:48:57;12.57;;;1.30;;
24147;SDS011;12309;51.450;-2.624;2023-05-16T05:51:23;16.90;;;1.60;;
24147;SDS011;12309;51.450;-2.624;2023-05-16T05:53:49;8.17;;;1.20;;
24147;SDS011;12309;51.450;-2.624;2023-05-16T05:56:16;10.73;;;1.33;;
24147;SDS011;12309;51.450;-2.624;2023-05-16T05:58:42;4.63;;;1.33;;
24147;SDS011;12309;51.450;-2.624;2023-05-16T06:01:09;6.13;;;1.37;;
24147;SDS011;12309;51.450;-2.624;2023-05-16T06:03:35;6.40;;;1.30;;
24147;SDS011;12309;51.450;-2.624;2023-05-16T06:06:02;7.50;;;1.13;;
24147;SDS011;12309;51.450;-2.624;2023-05-16T06:08:28;7.17;;;0.90;;
24147;SDS011;12309;51.450;-2.624;2023-05-16T06:10:54;4.77;;;1.13;;
24147;SDS011;12309;51.450;-2.624;2023-05-16T06:13:19;9.60;;;1.40;;
24147;SDS011;12309;51.450;-2.624;2023-05-16T06:15:49;9.37;;;1.50;;
24147;SDS011;12309;51.450;-2.624;2023-05-16T06:18:17;10.87;;;1.43;;
24147;SDS011;12309;51.450;-2.624;2023-05-16T06:20:43;3.90;;;1.27;;
24147;SDS011;12309;51.450;-2.624;2023-05-16T06:23:08;7.47;;;1.13;;
24147;SDS011;12309;51.450;-2.624;2023-05-16T06:25:34;8.03;;;1.10;;
24147;SDS011;12309;51.450;-2.624;2023-05-16T06:28:00;7.83;;;1.00;;
24147;SDS011;12309;51.450;-2.624;2023-05-16T06:30:25;6.53;;;1.20;;
24147;SDS011;12309;51.450;-2.624;2023-05-16T06:32:51;6.23;;;1.00;;
24147;SDS011;12309;51.450;-2.624;2023-05-16T06:35:16;10.17;;;1.40;;
24147;SDS011;12309;51.450;-2.624;2023-05-16T06:37:42;5.37;;;1.23;;
24147;SDS011;12309;51.450;-2.624;2023-05-16T06:40:08;10.67;;;1.43;;
24147;SDS011;12309;51.450;-2.624;2023-05-16T06:42:34;8.83;;;1.53;;
24147;SDS011;12309;51.450;-2.624;2023-05-16T06:44:59;6.70;;;1.40;;
24147;SDS011;12309;51.450;-2.624;2023-05-16T06:47:25;10.70;;;1.13;;
24147;SDS011;12309;51.450;-2.624;2023-05-16T06:49:51;8.03;;;1.27;;
24147;SDS011;12309;51.450;-2.624;2023-05-16T06:52:17;4.23;;;1.10;;
24147;SDS011;12309;51.450;-2.624;2023-05-16T06:54:42;7.40;;;1.00;;
24147;SDS011;12309;51.450;-2.624;2023-05-16T06:57:08;6.53;;;1.03;;
24147;SDS011;12309;51.450;-2.624;2023-05-16T06:59:34;16.97;;;1.40;;
24147;SDS011;12309;51.450;-2.624;2023-05-16T07:02:00;7.57;;;1.73;;
24147;SDS011;12309;51.450;-2.624;2023-05-16T07:04:26;5.37;;;1.03;;
24147;SDS011;12309;51.450;-2.624;2023-05-16T07:06:52;14.27;;;1.73;;
24147;SDS011;12309;51.450;-2.624;2023-05-16T07:09:18;12.17;;;1.87;;
24147;SDS011;12309;51.450;-2.624;2023-05-16T07:11:44;6.03;;;1.30;;
24147;SDS011;12309;51.450;-2.624;2023-05-16T07:14:10;5.80;;;1.37;;
24147;SDS011;12309;51.450;-2.624;2023-05-16T07:16:36;4.00;;;1.00;;
24147;SDS011;12309;51.450;-2.624;2023-05-16T07:19:02;6.00;;;1.30;;
24147;SDS011;12309;51.450;-2.624;2023-05-16T07:21:27;9.20;;;1.20;;
24147;SDS011;12309;51.450;-2.624;2023-05-16T07:23:53;7.67;;;1.03;;
24147;SDS011;12309;51.450;-2.624;2023-05-16T07:26:19;11.03;;;1.10;;
24147;SDS011;12309;51.450;-2.624;2023-05-16T07:28:47;5.40;;;1.27;;
24147;SDS011;12309;51.450;-2.624;2023-05-16T07:31:15;12.43;;;1.10;;
24147;SDS011;12309;51.450;-2.624;2023-05-16T07:33:41;7.17;;;1.20;;
24147;SDS011;12309;51.450;-2.624;2023-05-16T07:36:07;7.60;;;1.40;;
24147;SDS011;12309;51.450;-2.624;2023-05-16T07:38:33;10.20;;;1.13;;
24147;SDS011;12309;51.450;-2.624;2023-05-16T07:40:59;5.57;;;0.90;;
24147;SDS011;12309;51.450;-2.624;2023-05-16T07:43:25;6.50;;;1.10;;
24147;SDS011;12309;51.450;-2.624;2023-05-16T07:45:50;7.00;;;1.03;;
24147;SDS011;12309;51.450;-2.624;2023-05-16T07:48:16;10.60;;;0.90;;
24147;SDS011;12309;51.450;-2.624;2023-05-16T07:50:42;6.20;;;1.20;;
24147;SDS011;12309;51.450;-2.624;2023-05-16T07:53:08;6.17;;;1.00;;
24147;SDS011;12309;51.450;-2.624;2023-05-16T07:55:33;6.03;;;1.30;;
24147;SDS011;12309;51.450;-2.624;2023-05-16T07:57:59;7.70;;;1.27;;
24147;SDS011;12309;51.450;-2.624;2023-05-16T08:00:25;10.30;;;1.35;;
24147;SDS011;12309;51.450;-2.624;2023-05-16T08:02:50;9.98;;;1.40;;
24147;SDS011;12309;51.450;-2.624;2023-05-16T08:05:16;9.30;;;1.40;;
24147;SDS011;12309;51.450;-2.624;2023-05-16T08:07:42;8.37;;;1.80;;
24147;SDS011;12309;51.450;-2.624;2023-05-16T08:10:07;8.27;;;1.58;;
24147;SDS011;12309;51.450;-2.624;2023-05-16T08:12:33;6.45;;;1.35;;
24147;SDS011;12309;51.450;-2.624;2023-05-16T08:14:59;5.63;;;1.10;;
24147;SDS011;12309;51.450;-2.624;2023-05-16T08:17:25;17.50;;;1.30;;
24147;SDS011;12309;51.450;-2.624;2023-05-16T08:19:50;4.57;;;0.77;;
24147;SDS011;12309;51.450;-2.624;2023-05-16T08:22:16;4.25;;;1.20;;
24147;SDS011;12309;51.450;-2.624;2023-05-16T08:24:41;5.97;;;1.20;;
24147;SDS011;12309;51.450;-2.624;2023-05-16T08:27:07;5.80;;;1.42;;
24147;SDS011;12309;51.450;-2.624;2023-05-16T08:29:33;14.20;;;1.23;;
24147;SDS011;12309;51.450;-2.624;2023-05-16T08:31:58;11.57;;;1.30;;
24147;SDS011;12309;51.450;-2.624;2023-05-16T08:34:24;7.60;;;1.10;;
24147;SDS011;12309;51.450;-2.624;2023-05-16T08:36:50;6.13;;;1.25;;
24147;SDS011;12309;51.450;-2.624;2023-05-16T08:39:16;5.63;;;1.23;;
24147;SDS011;12309;51.450;-2.624;2023-05-16T08:41:41;7.90;;;1.60;;
24147;SDS011;12309;51.450;-2.624;2023-05-16T08:44:07;6.95;;;1.27;;
24147;SDS011;12309;51.450;-2.624;2023-05-16T08:46:34;8.80;;;1.20;;
24147;SDS011;12309;51.450;-2.624;2023-05-16T08:49:01;9.05;;;1.55;;
24147;SDS011;12309;51.450;-2.624;2023-05-16T08:51:31;10.40;;;1.40;;
24147;SDS011;12309;51.450;-2.624;2023-05-16T08:54:05;8.10;;;1.30;;
24147;SDS011;12309;51.450;-2.624;2023-05-16T08:56:35;7.13;;;1.10;;
24147;SDS011;12309;51.450;-2.624;2023-05-16T08:59:02;11.65;;;1.60;;
24147;SDS011;12309;51.450;-2.624;2023-05-16T09:01:29;11.27;;;2.00;;
24147;SDS011;12309;51.450;-2.624;2023-05-16T09:03:56;12.95;;;1.30;;
24147;SDS011;12309;51.450;-2.624;2023-05-16T09:06:23;8.35;;;1.50;;
24147;SDS011;12309;51.450;-2.624;2023-05-16T09:08:50;7.63;;;1.50;;
24147;SDS011;12309;51.450;-2.624;2023-05-16T09:11:16;11.48;;;1.35;;
24147;SDS011;12309;51.450;-2.624;2023-05-16T09:13:43;11.82;;;1.60;;
24147;SDS011;12309;51.450;-2.624;2023-05-16T09:16:16;6.78;;;0.95;;
24147;SDS011;12309;51.450;-2.624;2023-05-16T09:18:45;11.60;;;1.80;;
24147;SDS011;12309;51.450;-2.624;2023-05-16T09:21:18;12.05;;;1.60;;
24147;SDS011;12309;51.450;-2.624;2023-05-16T09:23:43;10.65;;;1.70;;
24147;SDS011;12309;51.450;-2.624;2023-05-16T09:26:12;5.80;;;1.23;;
24147;SDS011;12309;51.450;-2.624;2023-05-16T09:28:38;9.15;;;1.48;;
24147;SDS011;12309;51.450;-2.624;2023-05-16T09:31:18;4.70;;;1.00;;
24147;SDS011;12309;51.450;-2.624;2023-05-16T09:34:00;8.90;;;1.48;;
24147;SDS011;12309;51.450;-2.624;2023-05-16T09:36:25;8.20;;;1.40;;
24147;SDS011;12309;51.450;-2.624;2023-05-16T09:38:51;10.15;;;1.52;;
24147;SDS011;12309;51.450;-2.624;2023-05-16T09:41:17;11.48;;;1.25;;
24147;SDS011;12309;51.450;-2.624;2023-05-16T09:43:45;4.22;;;1.17;;
24147;SDS011;12309;51.450;-2.624;2023-05-16T09:46:14;7.78;;;1.35;;
24147;SDS011;12309;51.450;-2.624;2023-05-16T09:48:41;4.22;;;0.85;;
24147;SDS011;12309;51.450;-2.624;2023-05-16T09:51:10;4.32;;;1.20;;
24147;SDS011;12309;51.450;-2.624;2023-05-16T09:53:37;4.40;;;1.02;;
24147;SDS011;12309;51.450;-2.624;2023-05-16T09:58:33;4.97;;;1.30;;
24147;SDS011;12309;51.450;-2.624;2023-05-16T10:01:00;10.68;;;1.73;;
24147;SDS011;12309;51.450;-2.624;2023-05-16T10:03:27;3.65;;;1.15;;
24147;SDS011;12309;51.450;-2.624;2023-05-16T10:05:53;11.05;;;1.65;;
24147;SDS011;12309;51.450;-2.624;2023-05-16T10:08:20;4.50;;;1.00;;
24147;SDS011;12309;51.450;-2.624;2023-05-16T10:10:51;3.55;;;0.90;;
24147;SDS011;12309;51.450;-2.624;2023-05-16T10:13:22;5.32;;;1.20;;
24147;SDS011;12309;51.450;-2.624;2023-05-16T10:15:53;4.85;;;1.08;;
24147;SDS011;12309;51.450;-2.624;2023-05-16T10:18:20;5.22;;;1.17;;
24147;SDS011;12309;51.450;-2.624;2023-05-16T10:20:49;7.30;;;1.50;;
24147;SDS011;12309;51.450;-2.624;2023-05-16T10:23:19;7.53;;;2.40;;
24147;SDS011;12309;51.450;-2.624;2023-05-16T10:25:46;8.88;;;1.35;;
24147;SDS011;12309;51.450;-2.624;2023-05-16T10:28:16;11.75;;;1.48;;
24147;SDS011;12309;51.450;-2.624;2023-05-16T10:30:45;5.10;;;1.40;;
24147;SDS011;12309;51.450;-2.624;2023-05-16T10:33:15;6.03;;;1.20;;
24147;SDS011;12309;51.450;-2.624;2023-05-16T10:35:42;7.10;;;1.60;;
24147;SDS011;12309;51.450;-2.624;2023-05-16T10:38:09;9.45;;;1.20;;
24147;SDS011;12309;51.450;-2.624;2023-05-16T10:40:37;7.80;;;1.75;;
24147;SDS011;12309;51.450;-2.624;2023-05-16T10:43:04;9.80;;;1.52;;
24147;SDS011;12309;51.450;-2.624;2023-05-16T10:45:32;13.40;;;1.70;;
24147;SDS011;12309;51.450;-2.624;2023-05-16T10:47:59;6.57;;;1.48;;
24147;SDS011;12309;51.450;-2.624;2023-05-16T10:55:38;6.20;;;1.60;;
24147;SDS011;12309;51.450;-2.624;2023-05-16T10:58:04;5.47;;;1.65;;
24147;SDS011;12309;51.450;-2.624;2023-05-16T11:00:30;7.65;;;1.45;;
24147;SDS011;12309;51.450;-2.624;2023-05-16T11:03:05;8.50;;;1.67;;
24147;SDS011;12309;51.450;-2.624;2023-05-16T11:05:50;4.60;;;1.20;;
24147;SDS011;12309;51.450;-2.624;2023-05-16T11:08:18;6.00;;;1.50;;
24147;SDS011;12309;51.450;-2.624;2023-05-16T11:10:43;5.72;;;1.73;;
24147;SDS011;12309;51.450;-2.624;2023-05-16T11:13:09;6.47;;;1.52;;
24147;SDS011;12309;51.450;-2.624;2023-05-16T11:15:35;7.35;;;1.58;;
24147;SDS011;12309;51.450;-2.624;2023-05-16T11:20:40;5.20;;;1.65;;
24147;SDS011;12309;51.450;-2.624;2023-05-16T11:25:56;10.27;;;1.77;;
24147;SDS011;12309;51.450;-2.624;2023-05-16T11:28:24;7.00;;;1.58;;
24147;SDS011;12309;51.450;-2.624;2023-05-16T11:30:54;6.78;;;1.58;;
24147;SDS011;12309;51.450;-2.624;2023-05-16T11:33:23;7.13;;;1.40;;
24147;SDS011;12309;51.450;-2.624;2023-05-16T11:36:05;4.43;;;1.38;;
24147;SDS011;12309;51.450;-2.624;2023-05-16T11:38:32;7.45;;;1.55;;
24147;SDS011;12309;51.450;-2.624;2023-05-16T11:41:05;9.23;;;1.15;;
24147;SDS011;12309;51.450;-2.624;2023-05-16T11:43:37;11.38;;;1.98;;
24147;SDS011;12309;51.450;-2.624;2023-05-16T11:46:05;7.53;;;1.52;;
24147;SDS011;12309;51.450;-2.624;2023-05-16T11:48:31;7.13;;;1.60;;
24147;SDS011;12309;51.450;-2.624;2023-05-16T11:50:57;13.50;;;2.10;;
24147;SDS011;12309;51.450;-2.624;2023-05-16T11:53:23;5.70;;;2.10;;
24147;SDS011;12309;51.450;-2.624;2023-05-16T11:55:49;3.47;;;1.42;;
24147;SDS011;12309;51.450;-2.624;2023-05-16T11:58:17;9.05;;;2.10;;
24147;SDS011;12309;51.450;-2.624;2023-05-16T12:00:47;6.80;;;1.77;;
24147;SDS011;12309;51.450;-2.624;2023-05-16T12:03:14;7.13;;;1.77;;
24147;SDS011;12309;51.450;-2.624;2023-05-16T12:05:39;9.35;;;2.10;;
24147;SDS011;12309;51.450;-2.624;2023-05-16T12:08:17;8.77;;;1.70;;
24147;SDS011;12309;51.450;-2.624;2023-05-16T12:10:45;13.25;;;2.00;;
24147;SDS011;12309;51.450;-2.624;2023-05-16T12:13:13;5.85;;;2.00;;
24147;SDS011;12309;51.450;-2.624;2023-05-16T12:15:39;6.80;;;1.88;;
24147;SDS011;12309;51.450;-2.624;2023-05-16T12:18:05;6.72;;;1.92;;
24147;SDS011;12309;51.450;-2.624;2023-05-16T12:20:31;8.02;;;1.83;;
24147;SDS011;12309;51.450;-2.624;2023-05-16T12:22:57;6.85;;;2.10;;
24147;SDS011;12309;51.450;-2.624;2023-05-16T12:25:29;9.52;;;2.35;;
24147;SDS011;12309;51.450;-2.624;2023-05-16T12:27:57;7.10;;;1.98;;
24147;SDS011;12309;51.450;-2.624;2023-05-16T12:30:24;7.00;;;2.13;;
24147;SDS011;12309;51.450;-2.624;2023-05-16T12:32:54;7.43;;;1.92;;
24147;SDS011;12309;51.450;-2.624;2023-05-16T12:35:21;6.45;;;2.17;;
24147;SDS011;12309;51.450;-2.624;2023-05-16T12:37:48;8.98;;;2.55;;
24147;SDS011;12309;51.450;-2.624;2023-05-16T12:40:15;5.10;;;2.20;;
24147;SDS011;12309;51.450;-2.624;2023-05-16T12:42:44;6.65;;;2.58;;
24147;SDS011;12309;51.450;-2.624;2023-05-16T12:45:13;9.05;;;2.15;;
24147;SDS011;12309;51.450;-2.624;2023-05-16T12:47:42;7.15;;;1.90;;
24147;SDS011;12309;51.450;-2.624;2023-05-16T12:50:09;10.98;;;2.35;;
24147;SDS011;12309;51.450;-2.624;2023-05-16T12:52:44;6.80;;;2.20;;
24147;SDS011;12309;51.450;-2.624;2023-05-16T12:55:11;9.90;;;2.53;;
24147;SDS011;12309;51.450;-2.624;2023-05-16T12:57:40;5.18;;;2.13;;
24147;SDS011;12309;51.450;-2.624;2023-05-16T13:00:07;6.80;;;2.38;;
24147;SDS011;12309;51.450;-2.624;2023-05-16T13:02:35;5.78;;;2.50;;
24147;SDS011;12309;51.450;-2.624;2023-05-16T13:05:01;9.27;;;2.60;;
24147;SDS011;12309;51.450;-2.624;2023-05-16T13:07:27;9.20;;;2.63;;
24147;SDS011;12309;51.450;-2.624;2023-05-16T13:09:53;9.02;;;2.67;;
24147;SDS011;12309;51.450;-2.624;2023-05-16T13:12:18;8.65;;;2.63;;
24147;SDS011;12309;51.450;-2.624;2023-05-16T13:14:45;11.98;;;2.50;;
24147;SDS011;12309;51.450;-2.624;2023-05-16T13:17:11;16.83;;;2.60;;
24147;SDS011;12309;51.450;-2.624;2023-05-16T13:19:37;14.13;;;3.08;;
24147;SDS011;12309;51.450;-2.624;2023-05-16T13:22:02;8.90;;;2.63;;
24147;SDS011;12309;51.450;-2.624;2023-05-16T13:24:28;7.70;;;2.50;;
24147;SDS011;12309;51.450;-2.624;2023-05-16T13:26:54;20.73;;;3.47;;
24147;SDS011;12309;51.450;-2.624;2023-05-16T13:29:20;22.27;;;3.00;;
24147;SDS011;12309;51.450;-2.624;2023-05-16T13:31:45;18.40;;;3.05;;
24147;SDS011;12309;51.450;-2.624;2023-05-16T13:34:11;8.48;;;2.53;;
24147;SDS011;12309;51.450;-2.624;2023-05-16T13:36:37;9.35;;;2.53;;
24147;SDS011;12309;51.450;-2.624;2023-05-16T13:39:02;22.88;;;3.10;;
24147;SDS011;12309;51.450;-2.624;2023-05-16T13:41:28;10.25;;;2.63;;
24147;SDS011;12309;51.450;-2.624;2023-05-16T13:43:53;7.97;;;2.05;;
24147;SDS011;12309;51.450;-2.624;2023-05-16T13:46:19;11.25;;;2.67;;
24147;SDS011;12309;51.450;-2.624;2023-05-16T13:48:45;13.63;;;2.58;;
24147;SDS011;12309;51.450;-2.624;2023-05-16T13:51:10;6.88;;;2.28;;
24147;SDS011;12309;51.450;-2.624;2023-05-16T13:53:37;7.90;;;3.15;;
24147;SDS011;12309;51.450;-2.624;2023-05-16T13:56:03;8.77;;;2.72;;
24147;SDS011;12309;51.450;-2.624;2023-05-16T13:58:29;7.85;;;2.50;;
24147;SDS011;12309;51.450;-2.624;2023-05-16T14:00:55;10.75;;;2.45;;
24147;SDS011;12309;51.450;-2.624;2023-05-16T14:03:20;9.32;;;2.60;;
24147;SDS011;12309;51.450;-2.624;2023-05-16T14:05:47;9.00;;;2.15;;
24147;SDS011;12309;51.450;-2.624;2023-05-16T14:08:13;9.25;;;2.28;;
24147;SDS011;12309;51.450;-2.624;2023-05-16T14:10:39;8.00;;;2.58;;
24147;SDS011;12309;51.450;-2.624;2023-05-16T14:13:04;8.60;;;2.40;;
24147;SDS011;12309;51.450;-2.624;2023-05-16T14:15:30;6.38;;;2.10;;
24147;SDS011;12309;51.450;-2.624;2023-05-16T14:17:56;7.55;;;2.38;;
24147;SDS011;12309;51.450;-2.624;2023-05-16T14:20:21;6.53;;;2.42;;
24147;SDS011;12309;51.450;-2.624;2023-05-16T14:22:47;7.40;;;2.63;;
24147;SDS011;12309;51.450;-2.624;2023-05-16T14:25:12;6.88;;;2.58;;
24147;SDS011;12309;51.450;-2.624;2023-05-16T14:27:38;5.80;;;2.38;;
24147;SDS011;12309;51.450;-2.624;2023-05-16T14:30:04;5.47;;;2.22;;
24147;SDS011;12309;51.450;-2.624;2023-05-16T14:32:30;8.00;;;2.75;;
24147;SDS011;12309;51.450;-2.624;2023-05-16T14:34:56;4.55;;;2.40;;
24147;SDS011;12309;51.450;-2.624;2023-05-16T14:37:21;7.68;;;3.15;;
24147;SDS011;12309;51.450;-2.624;2023-05-16T14:39:47;9.57;;;2.45;;
24147;SDS011;12309;51.450;-2.624;2023-05-16T14:42:14;11.68;;;2.70;;
24147;SDS011;12309;51.450;-2.624;2023-05-16T14:44:40;4.38;;;2.40;;
24147;SDS011;12309;51.450;-2.624;2023-05-16T14:47:06;6.95;;;2.70;;
24147;SDS011;12309;51.450;-2.624;2023-05-16T14:49:32;7.90;;;2.55;;
24147;SDS011;12309;51.450;-2.624;2023-05-16T14:51:57;8.05;;;2.83;;
24147;SDS011;12309;51.450;-2.624;2023-05-16T14:54:23;15.15;;;2.47;;